createdAt,value
2022-08-29T00:00:30.817Z,16.25
2022-08-29T00:03:00.182Z,16.25
2022-08-29T00:05:30.909Z,16.23
2022-08-29T00:07:59.388Z,16.27
2022-08-29T00:10:27.274Z,16.33
2022-08-29T00:12:54.697Z,16.30
2022-08-29T00:15:25.917Z,16.30
2022-08-29T00:17:53.517Z,16.29
2022-08-29T00:20:30.344Z,16.35
2022-08-29T00:23:03.690Z,16.39
2022-08-29T00:25:31.383Z,16.41
2022-08-29T00:27:59.248Z,16.42
2022-08-29T00:30:26.360Z,16.45
2022-08-29T00:32:53.493Z,16.47
2022-08-29T00:35:24.474Z,16.47
2022-08-29T00:37:52.166Z,16.44
2022-08-29T00:40:44.973Z,16.48
2022-08-29T00:43:20.872Z,16.48
2022-08-29T00:46:05.279Z,16.42
2022-08-29T00:48:34.929Z,16.35
2022-08-29T00:51:05.245Z,16.26
2022-08-29T00:53:44.157Z,16.20
2022-08-29T00:56:13.924Z,16.19
2022-08-29T00:58:46.211Z,16.15
2022-08-29T01:01:14.209Z,16.09
2022-08-29T01:03:42.930Z,16.18
2022-08-29T01:06:11.355Z,16.29
2022-08-29T01:08:38.169Z,16.30
2022-08-29T01:11:24.996Z,16.26
2022-08-29T01:13:54.756Z,16.35
2022-08-29T01:16:24.225Z,16.37
2022-08-29T01:18:56.880Z,16.36
2022-08-29T01:21:47.498Z,16.34
2022-08-29T01:24:20.095Z,16.35
2022-08-29T01:26:47.960Z,16.33
2022-08-29T01:29:16.192Z,16.31
2022-08-29T01:31:56.935Z,16.30
2022-08-29T01:34:27.430Z,16.32
2022-08-29T01:37:03.849Z,16.32
2022-08-29T01:39:33.945Z,16.31
2022-08-29T01:42:04.247Z,16.28
2022-08-29T01:44:31.529Z,16.30
2022-08-29T01:47:03.117Z,16.32
2022-08-29T01:49:33.151Z,16.28
2022-08-29T01:52:02.078Z,16.22
2022-08-29T01:54:30.108Z,16.22
2022-08-29T01:56:56.955Z,16.25
2022-08-29T01:59:27.206Z,16.23
2022-08-29T02:01:58.621Z,16.20
2022-08-29T02:04:25.684Z,16.18
2022-08-29T02:06:52.619Z,16.21
2022-08-29T02:09:19.437Z,16.19
2022-08-29T02:11:46.497Z,16.19
2022-08-29T02:14:19.343Z,16.18
2022-08-29T02:16:48.126Z,16.20
2022-08-29T02:19:16.604Z,16.20
2022-08-29T02:21:44.453Z,16.19
2022-08-29T02:24:25.055Z,16.20
2022-08-29T02:26:54.662Z,16.24
2022-08-29T02:29:21.672Z,16.21
2022-08-29T02:31:48.792Z,16.21
2022-08-29T02:34:16.411Z,16.22
2022-08-29T02:36:44.659Z,16.23
2022-08-29T02:39:12.306Z,16.21
2022-08-29T02:41:42.037Z,16.19
2022-08-29T02:44:11.365Z,16.16
2022-08-29T02:46:38.218Z,16.19
2022-08-29T02:49:05.808Z,16.22
2022-08-29T02:51:34.087Z,16.25
2022-08-29T02:54:01.717Z,16.23
2022-08-29T02:56:30.006Z,16.21
2022-08-29T02:58:57.747Z,16.22
2022-08-29T03:01:27.363Z,16.23
2022-08-29T03:03:54.475Z,16.25
2022-08-29T03:06:22.308Z,16.28
2022-08-29T03:08:50.004Z,16.35
2022-08-29T03:11:17.392Z,16.36
2022-08-29T03:13:44.866Z,16.36
2022-08-29T03:16:11.977Z,16.37
2022-08-29T03:18:38.983Z,16.37
2022-08-29T03:21:05.891Z,16.14
2022-08-29T03:23:32.682Z,16.10
2022-08-29T03:25:59.568Z,16.13
2022-08-29T03:28:26.386Z,16.13
2022-08-29T03:30:53.188Z,16.13
2022-08-29T03:33:20.003Z,16.11
2022-08-29T03:35:46.772Z,16.03
2022-08-29T03:38:13.705Z,15.97
2022-08-29T03:40:42.390Z,16.05
2022-08-29T03:43:09.988Z,16.14
2022-08-29T03:45:36.832Z,16.13
2022-08-29T03:48:04.351Z,16.04
2022-08-29T03:50:31.363Z,16.08
2022-08-29T03:52:58.357Z,16.15
2022-08-29T03:55:26.197Z,16.20
2022-08-29T03:57:55.054Z,16.13
2022-08-29T04:00:21.875Z,16.18
2022-08-29T04:02:49.385Z,16.23
2022-08-29T04:05:18.038Z,16.20
2022-08-29T04:07:44.925Z,16.13
2022-08-29T04:10:16.319Z,16.18
2022-08-29T04:12:43.177Z,16.20
2022-08-29T04:15:11.777Z,16.15
2022-08-29T04:17:53.216Z,16.18
2022-08-29T04:20:25.050Z,16.17
2022-08-29T04:22:54.241Z,16.23
2022-08-29T04:25:23.126Z,16.27
2022-08-29T04:27:49.929Z,16.30
2022-08-29T04:30:19.731Z,16.31
2022-08-29T04:32:47.399Z,16.33
2022-08-29T04:35:15.813Z,16.35
2022-08-29T04:37:43.911Z,16.38
2022-08-29T04:40:15.467Z,16.39
2022-08-29T04:42:43.292Z,16.37
2022-08-29T04:45:12.911Z,16.39
2022-08-29T04:47:40.937Z,16.46
2022-08-29T04:50:11.759Z,16.54
2022-08-29T04:52:39.086Z,16.54
2022-08-29T04:55:07.205Z,16.50
2022-08-29T04:57:35.250Z,16.55
2022-08-29T05:00:04.794Z,16.62
2022-08-29T05:02:31.975Z,16.67
2022-08-29T05:04:58.815Z,16.71
2022-08-29T05:07:26.994Z,16.76
2022-08-29T05:10:00.971Z,16.80
2022-08-29T05:12:29.907Z,16.81
2022-08-29T05:14:57.863Z,16.82
2022-08-29T05:17:24.743Z,16.85
2022-08-29T05:19:51.895Z,16.89
2022-08-29T05:22:20.051Z,16.92
2022-08-29T05:24:48.850Z,16.95
2022-08-29T05:27:19.121Z,17.07
2022-08-29T05:29:49.013Z,17.16
2022-08-29T05:32:17.501Z,17.17
2022-08-29T05:34:45.473Z,17.14
2022-08-29T05:37:16.452Z,17.08
2022-08-29T05:39:43.285Z,16.98
2022-08-29T05:42:12.069Z,17.10
2022-08-29T05:44:39.957Z,17.08
2022-08-29T05:47:09.162Z,17.12
2022-08-29T05:49:37.906Z,17.26
2022-08-29T05:52:06.288Z,17.40
2022-08-29T05:54:36.021Z,17.57
2022-08-29T05:57:03.145Z,17.64
2022-08-29T05:59:30.344Z,17.67
2022-08-29T06:01:57.305Z,17.60
2022-08-29T06:04:24.148Z,17.74
2022-08-29T06:06:50.994Z,17.74
2022-08-29T06:09:17.829Z,17.69
2022-08-29T06:11:50.391Z,17.67
2022-08-29T06:14:17.536Z,17.79
2022-08-29T06:16:44.328Z,17.85
2022-08-29T06:19:12.000Z,17.81
2022-08-29T06:21:38.966Z,17.96
2022-08-29T06:24:07.321Z,18.01
2022-08-29T06:26:35.070Z,18.06
2022-08-29T06:29:05.639Z,18.16
2022-08-29T06:31:32.747Z,18.41
2022-08-29T06:34:02.204Z,18.47
2022-08-29T06:36:29.906Z,18.50
2022-08-29T06:38:58.499Z,18.76
2022-08-29T06:41:26.714Z,18.91
2022-08-29T06:43:56.789Z,18.98
2022-08-29T06:46:30.108Z,19.00
2022-08-29T06:48:59.407Z,19.16
2022-08-29T06:51:27.230Z,19.21
2022-08-29T06:53:54.892Z,19.30
2022-08-29T06:56:22.333Z,19.58
2022-08-29T06:58:49.201Z,19.88
2022-08-29T07:01:19.812Z,20.12
2022-08-29T07:03:47.428Z,20.39
2022-08-29T07:06:17.188Z,20.42
2022-08-29T07:08:55.732Z,20.29
2022-08-29T07:11:25.625Z,20.30
2022-08-29T07:13:52.635Z,20.33
2022-08-29T07:16:19.787Z,20.28
2022-08-29T07:18:47.399Z,20.17
2022-08-29T07:21:20.923Z,19.95
2022-08-29T07:23:49.432Z,19.73
2022-08-29T07:26:19.455Z,19.60
2022-08-29T07:28:51.250Z,19.46
2022-08-29T07:31:18.677Z,19.45
2022-08-29T07:33:45.554Z,19.30
2022-08-29T07:36:12.646Z,19.17
2022-08-29T07:38:39.583Z,19.11
2022-08-29T07:41:09.818Z,19.18
2022-08-29T07:43:37.584Z,19.28
2022-08-29T07:46:09.453Z,19.32
2022-08-29T07:48:37.003Z,19.38
2022-08-29T07:51:11.381Z,19.57
2022-08-29T07:53:39.045Z,19.71
2022-08-29T07:56:08.024Z,19.53
2022-08-29T07:58:36.233Z,19.46
2022-08-29T08:01:04.126Z,19.24
2022-08-29T08:03:32.490Z,19.02
2022-08-29T08:05:59.764Z,18.70
2022-08-29T08:08:31.098Z,18.55
2022-08-29T08:10:58.009Z,18.63
2022-08-29T08:13:24.885Z,18.59
2022-08-29T08:15:51.685Z,18.59
2022-08-29T08:18:18.702Z,18.54
2022-08-29T08:20:48.352Z,18.55
2022-08-29T08:23:17.051Z,18.57
2022-08-29T08:25:44.897Z,18.56
2022-08-29T08:28:15.854Z,18.59
2022-08-29T08:30:42.970Z,18.63
2022-08-29T08:33:10.893Z,18.58
2022-08-29T08:35:42.001Z,18.61
2022-08-29T08:38:09.304Z,18.61
2022-08-29T08:40:43.680Z,18.69
2022-08-29T08:43:26.233Z,18.66
2022-08-29T08:45:55.368Z,18.71
2022-08-29T08:48:26.029Z,18.81
2022-08-29T08:51:17.060Z,18.98
2022-08-29T08:53:47.632Z,19.13
2022-08-29T08:56:34.501Z,18.93
2022-08-29T08:59:25.303Z,19.01
2022-08-29T09:02:00.338Z,19.21
2022-08-29T09:04:37.635Z,19.28
2022-08-29T09:07:22.347Z,19.62
2022-08-29T09:10:17.052Z,19.62
2022-08-29T09:13:08.949Z,19.53
2022-08-29T09:15:45.316Z,19.47
2022-08-29T09:18:24.110Z,19.43
2022-08-29T09:20:51.258Z,19.50
2022-08-29T09:23:44.416Z,19.59
2022-08-29T09:26:15.228Z,19.71
2022-08-29T09:28:42.182Z,19.69
2022-08-29T09:31:33.706Z,19.60
2022-08-29T09:34:04.265Z,19.57
2022-08-29T09:36:52.099Z,19.70
2022-08-29T09:39:29.600Z,19.97
2022-08-29T09:42:13.855Z,20.39
2022-08-29T09:44:41.829Z,20.34
2022-08-29T09:47:13.624Z,20.16
2022-08-29T09:50:00.111Z,20.30
2022-08-29T09:52:27.410Z,19.98
2022-08-29T09:54:54.853Z,19.97
2022-08-29T09:57:26.282Z,19.96
2022-08-29T10:00:15.849Z,19.68
2022-08-29T10:02:45.485Z,19.92
2022-08-29T10:05:35.949Z,19.72
2022-08-29T10:08:06.072Z,19.65
2022-08-29T10:10:36.483Z,19.48
2022-08-29T10:13:03.240Z,19.40
2022-08-29T10:15:49.927Z,19.26
2022-08-29T10:18:36.277Z,19.40
2022-08-29T10:21:24.542Z,19.47
2022-08-29T10:24:03.914Z,19.60
2022-08-29T10:26:50.508Z,19.47
2022-08-29T10:29:45.947Z,19.15
2022-08-29T10:32:37.878Z,19.36
2022-08-29T10:35:22.770Z,19.64
2022-08-29T10:37:55.407Z,19.73
2022-08-29T10:40:45.585Z,19.93
2022-08-29T10:43:34.175Z,19.88
2022-08-29T10:46:26.089Z,20.12
2022-08-29T10:49:10.711Z,20.07
2022-08-29T10:51:43.402Z,20.32
2022-08-29T10:54:33.665Z,20.84
2022-08-29T10:57:03.536Z,21.03
2022-08-29T10:59:50.373Z,21.41
2022-08-29T11:02:32.484Z,22.39
2022-08-29T11:05:05.057Z,21.99
2022-08-29T11:07:43.769Z,22.37
2022-08-29T11:10:17.732Z,22.89
2022-08-29T11:12:47.192Z,23.37
2022-08-29T11:16:00.921Z,24.01
2022-08-29T11:18:36.917Z,25.17
2022-08-29T11:21:14.922Z,24.61
2022-08-29T11:23:46.533Z,23.80
2022-08-29T11:26:28.333Z,24.02
2022-08-29T11:29:06.044Z,23.00
2022-08-29T11:31:51.368Z,22.42
2022-08-29T11:34:59.478Z,21.97
2022-08-29T11:38:03.665Z,21.88
2022-08-29T11:41:26.419Z,21.73
2022-08-29T11:43:38.723Z,23.61
2022-08-29T11:46:08.103Z,24.23
2022-08-29T11:49:15.395Z,23.10
2022-08-29T11:51:52.574Z,23.46
2022-08-29T11:54:25.340Z,23.29
2022-08-29T11:57:01.329Z,24.32
2022-08-29T11:59:48.517Z,24.84
2022-08-29T12:02:27.609Z,25.81
2022-08-29T12:05:04.319Z,25.54
2022-08-29T12:07:53.810Z,24.27
2022-08-29T12:10:21.984Z,24.13
2022-08-29T12:12:51.131Z,26.02
2022-08-29T12:15:27.402Z,26.37
2022-08-29T12:18:18.086Z,26.11
2022-08-29T12:20:50.988Z,25.27
2022-08-29T12:23:20.898Z,25.67
2022-08-29T12:26:09.622Z,24.47
2022-08-29T12:28:47.336Z,23.76
2022-08-29T12:31:29.429Z,23.86
2022-08-29T12:34:23.340Z,22.43
2022-08-29T12:37:00.880Z,24.55
2022-08-29T12:39:53.733Z,25.58
2022-08-29T12:42:29.623Z,25.08
2022-08-29T12:45:12.021Z,23.81
2022-08-29T12:47:54.122Z,24.63
2022-08-29T12:50:44.165Z,25.12
2022-08-29T12:53:17.102Z,24.63
2022-08-29T12:55:51.646Z,24.87
2022-08-29T12:58:36.777Z,24.19
2022-08-29T13:01:06.992Z,23.44
2022-08-29T13:03:33.918Z,24.49
2022-08-29T13:06:13.209Z,25.69
2022-08-29T13:08:41.261Z,24.95
2022-08-29T13:11:10.999Z,24.68
2022-08-29T13:13:37.998Z,25.35
2022-08-29T13:16:09.139Z,23.46
2022-08-29T13:18:53.677Z,24.80
2022-08-29T13:21:26.525Z,27.68
2022-08-29T13:24:10.024Z,25.08
2022-08-29T13:27:06.309Z,23.66
2022-08-29T13:29:36.223Z,23.19
2022-08-29T13:32:09.230Z,25.92
2022-08-29T13:34:36.124Z,25.33
2022-08-29T13:37:08.340Z,26.25
2022-08-29T13:39:46.259Z,24.51
2022-08-29T13:42:22.444Z,24.28
2022-08-29T13:44:49.222Z,25.32
2022-08-29T13:47:28.832Z,25.82
2022-08-29T13:50:01.107Z,27.75
2022-08-29T13:52:31.542Z,28.30
2022-08-29T13:54:59.100Z,27.21
2022-08-29T13:57:29.129Z,25.63
2022-08-29T13:59:57.289Z,24.53
2022-08-29T14:02:25.946Z,24.58
2022-08-29T14:04:53.109Z,23.56
2022-08-29T14:07:24.219Z,23.18
2022-08-29T14:09:51.837Z,23.05
2022-08-29T14:12:19.178Z,23.39
2022-08-29T14:14:48.353Z,23.44
2022-08-29T14:17:18.680Z,23.02
2022-08-29T14:19:46.985Z,22.28
2022-08-29T14:22:14.452Z,22.16
2022-08-29T14:24:41.911Z,23.86
2022-08-29T14:27:09.681Z,24.15
2022-08-29T14:29:36.879Z,23.88
2022-08-29T14:32:04.271Z,23.79
2022-08-29T14:34:32.860Z,22.83
2022-08-29T14:37:03.161Z,24.02
2022-08-29T14:39:30.532Z,23.48
2022-08-29T14:41:57.539Z,25.24
2022-08-29T14:44:24.546Z,27.83
2022-08-29T14:46:51.887Z,28.72
2022-08-29T14:49:19.642Z,28.26
2022-08-29T14:51:46.838Z,28.23
2022-08-29T14:54:14.156Z,26.86
2022-08-29T14:56:50.615Z,23.27
2022-08-29T14:59:22.487Z,22.71
2022-08-29T15:01:54.373Z,23.80
2022-08-29T15:04:35.637Z,24.78
2022-08-29T15:07:08.312Z,25.10
2022-08-29T15:09:35.515Z,24.76
2022-08-29T15:12:03.003Z,24.73
2022-08-29T15:14:29.980Z,26.03
2022-08-29T15:16:56.727Z,24.91
2022-08-29T15:22:11.616Z,23.09
2022-08-29T15:24:39.219Z,24.39
2022-08-29T15:27:06.621Z,26.68
2022-08-29T15:29:34.103Z,26.84
2022-08-29T15:32:01.171Z,26.47
2022-08-29T15:34:28.572Z,25.20
2022-08-29T15:36:56.735Z,23.81
2022-08-29T15:39:28.050Z,23.86
2022-08-29T15:41:56.566Z,24.32
2022-08-29T15:44:24.109Z,24.45
2022-08-29T15:46:52.231Z,24.15
2022-08-29T15:49:22.065Z,23.28
2022-08-29T15:51:52.759Z,22.49
2022-08-29T15:54:20.839Z,22.34
2022-08-29T15:56:48.059Z,21.76
2022-08-29T15:59:16.774Z,21.38
2022-08-29T16:01:47.308Z,21.30
2022-08-29T16:04:17.262Z,21.41
2022-08-29T16:06:44.139Z,21.13
2022-08-29T16:09:15.091Z,20.68
2022-08-29T16:11:44.149Z,20.21
2022-08-29T16:16:58.857Z,20.20
2022-08-29T16:19:25.677Z,20.18
2022-08-29T16:21:52.899Z,19.70
2022-08-29T16:24:21.874Z,19.66
2022-08-29T16:26:48.764Z,19.63
2022-08-29T16:29:16.481Z,19.71
2022-08-29T16:31:54.044Z,19.60
2022-08-29T16:34:22.838Z,19.46
2022-08-29T16:36:49.687Z,19.16
2022-08-29T16:39:16.446Z,18.85
2022-08-29T16:41:45.252Z,18.53
2022-08-29T16:44:12.084Z,18.41
2022-08-29T16:46:38.873Z,18.29
2022-08-29T16:49:06.042Z,18.26
2022-08-29T16:51:32.885Z,18.19
2022-08-29T16:54:00.150Z,18.15
2022-08-29T16:56:27.311Z,18.07
2022-08-29T16:59:01.537Z,17.97
2022-08-29T17:01:35.235Z,17.96
2022-08-29T17:04:04.429Z,17.92
2022-08-29T17:06:32.861Z,17.86
2022-08-29T17:09:00.202Z,17.96
2022-08-29T17:11:28.293Z,18.02
2022-08-29T17:13:55.744Z,18.01
2022-08-29T17:16:23.256Z,18.06
2022-08-29T17:18:50.599Z,18.02
2022-08-29T17:21:17.808Z,17.92
2022-08-29T17:23:45.466Z,17.82
2022-08-29T17:26:16.502Z,17.61
2022-08-29T17:28:45.852Z,17.47
2022-08-29T17:31:13.286Z,17.36
2022-08-29T17:33:40.694Z,17.33
2022-08-29T17:36:09.447Z,17.27
2022-08-29T17:38:38.883Z,17.23
2022-08-29T17:41:14.671Z,17.11
2022-08-29T17:43:42.614Z,17.06
2022-08-29T17:46:09.724Z,16.97
2022-08-29T17:48:36.818Z,16.89
2022-08-29T17:51:04.298Z,16.81
2022-08-29T17:53:32.523Z,16.76
2022-08-29T17:56:11.390Z,16.61
2022-08-29T17:58:39.980Z,16.60
2022-08-29T18:01:13.622Z,16.57
2022-08-29T18:03:44.417Z,16.54
2022-08-29T18:06:14.887Z,16.50
2022-08-29T18:08:47.906Z,16.34
2022-08-29T18:11:17.068Z,16.38
2022-08-29T18:13:44.501Z,16.29
2022-08-29T18:16:12.107Z,16.23
2022-08-29T18:18:39.319Z,16.10
2022-08-29T18:21:06.433Z,16.02
2022-08-29T18:23:33.520Z,15.97
2022-08-29T18:26:01.273Z,15.95
2022-08-29T18:28:28.374Z,15.98
2022-08-29T18:30:55.562Z,15.90
2022-08-29T18:33:22.474Z,15.85
2022-08-29T18:35:49.264Z,15.77
2022-08-29T18:38:16.395Z,15.71
2022-08-29T18:40:44.032Z,15.51
2022-08-29T18:43:13.330Z,15.54
2022-08-29T18:45:41.203Z,15.57
2022-08-29T18:48:08.846Z,15.56
2022-08-29T18:50:36.489Z,15.58
2022-08-29T18:53:08.220Z,15.55
2022-08-29T18:55:35.656Z,15.49
2022-08-29T18:58:04.068Z,15.49
2022-08-29T19:00:31.546Z,15.37
2022-08-29T19:03:01.150Z,15.30
2022-08-29T19:05:31.092Z,15.37
2022-08-29T19:07:58.466Z,15.37
2022-08-29T19:10:28.270Z,15.35
2022-08-29T19:12:56.928Z,15.34
2022-08-29T19:15:25.941Z,15.29
2022-08-29T19:17:53.549Z,15.28
2022-08-29T19:20:42.685Z,15.39
2022-08-29T19:23:10.463Z,15.43
2022-08-29T19:25:38.389Z,15.39
2022-08-29T19:28:06.289Z,15.36
2022-08-29T19:30:34.119Z,15.49
2022-08-29T19:33:01.087Z,15.63
2022-08-29T19:35:27.987Z,15.70
2022-08-29T19:37:54.876Z,15.69
2022-08-29T19:40:22.975Z,15.66
2022-08-29T19:42:49.940Z,15.65
2022-08-29T19:45:19.156Z,15.61
2022-08-29T19:47:46.123Z,15.59
2022-08-29T19:50:14.501Z,15.56
2022-08-29T19:52:41.837Z,15.54
2022-08-29T19:55:12.893Z,15.51
2022-08-29T19:57:41.510Z,15.50
2022-08-29T20:00:14.030Z,15.49
2022-08-29T20:02:42.405Z,15.44
2022-08-29T20:05:13.843Z,15.42
2022-08-29T20:07:41.949Z,15.39
2022-08-29T20:10:10.878Z,15.35
2022-08-29T20:12:37.675Z,15.30
2022-08-29T20:15:06.975Z,15.27
2022-08-29T20:17:39.217Z,15.20
2022-08-29T20:20:13.048Z,15.15
2022-08-29T20:22:39.896Z,15.11
2022-08-29T20:25:10.714Z,15.06
2022-08-29T20:27:38.394Z,14.98
2022-08-29T20:30:09.027Z,14.96
2022-08-29T20:32:36.078Z,14.90
2022-08-29T20:35:04.380Z,14.85
2022-08-29T20:37:31.152Z,14.80
2022-08-29T20:39:58.704Z,14.74
2022-08-29T20:42:26.140Z,14.72
2022-08-29T20:44:56.561Z,14.65
2022-08-29T20:47:24.255Z,14.64
2022-08-29T20:49:55.885Z,14.67
2022-08-29T20:52:24.323Z,14.63
2022-08-29T20:54:51.812Z,14.53
2022-08-29T20:57:18.878Z,14.49
2022-08-29T20:59:46.361Z,14.41
2022-08-29T21:02:14.021Z,14.39
2022-08-29T21:04:59.631Z,14.34
2022-08-29T21:07:26.493Z,14.30
2022-08-29T21:09:54.790Z,14.31
2022-08-29T21:12:22.307Z,14.28
2022-08-29T21:14:54.357Z,14.25
2022-08-29T21:17:21.210Z,14.26
2022-08-29T21:19:48.155Z,14.27
2022-08-29T21:22:15.622Z,14.24
2022-08-29T21:24:42.464Z,14.20
2022-08-29T21:27:10.598Z,14.15
2022-08-29T21:29:37.462Z,14.16
2022-08-29T21:32:04.877Z,14.16
2022-08-29T21:34:31.826Z,14.11
2022-08-29T21:36:58.582Z,14.14
2022-08-29T21:39:28.873Z,14.11
2022-08-29T21:41:57.587Z,14.08
2022-08-29T21:44:24.370Z,14.11
2022-08-29T21:46:51.317Z,14.09
2022-08-29T21:49:21.504Z,14.05
2022-08-29T21:51:49.144Z,14.07
2022-08-29T21:54:17.339Z,14.11
2022-08-29T21:56:45.408Z,14.15
2022-08-29T21:59:14.032Z,14.11
2022-08-29T22:01:41.737Z,14.16
2022-08-29T22:04:19.143Z,14.19
2022-08-29T22:06:54.804Z,14.18
2022-08-29T22:09:21.732Z,14.20
2022-08-29T22:11:49.003Z,14.22
2022-08-29T22:14:15.768Z,14.19
2022-08-29T22:16:43.023Z,14.07
2022-08-29T22:19:12.972Z,13.93
2022-08-29T22:21:42.677Z,13.92
2022-08-29T22:24:10.583Z,13.92
2022-08-29T22:26:39.353Z,13.96
2022-08-29T22:29:08.298Z,14.04
2022-08-29T22:31:40.454Z,14.00
2022-08-29T22:34:17.241Z,14.00
2022-08-29T22:36:45.633Z,14.05
2022-08-29T22:39:12.609Z,14.07
2022-08-29T22:41:44.210Z,14.04
2022-08-29T22:47:01.508Z,13.94
2022-08-29T22:49:33.244Z,13.87
2022-08-29T22:52:00.754Z,13.87
2022-08-29T22:54:36.474Z,13.81
2022-08-29T22:57:10.090Z,13.79
2022-08-29T22:59:37.817Z,13.85
2022-08-29T23:02:05.799Z,13.86
2022-08-29T23:04:32.630Z,13.78
2022-08-29T23:07:00.780Z,13.68
2022-08-29T23:09:33.533Z,13.65
2022-08-29T23:12:05.624Z,13.76
2022-08-29T23:14:34.827Z,13.83
2022-08-29T23:17:02.566Z,13.88
2022-08-29T23:19:29.365Z,13.92
2022-08-29T23:21:57.904Z,13.99
2022-08-29T23:24:26.263Z,13.97
2022-08-29T23:26:53.177Z,13.97
2022-08-29T23:29:20.766Z,13.97
2022-08-29T23:31:47.546Z,14.07
2022-08-29T23:34:14.637Z,14.12
2022-08-29T23:36:41.478Z,14.23
2022-08-29T23:39:08.432Z,14.30
2022-08-29T23:41:36.152Z,14.37
2022-08-29T23:44:03.524Z,14.34
2022-08-29T23:46:30.358Z,14.41
2022-08-29T23:48:57.877Z,14.51
2022-08-29T23:51:24.653Z,14.59
2022-08-29T23:53:51.450Z,14.62
2022-08-29T23:56:21.114Z,14.63
2022-08-29T23:58:48.286Z,14.62
